Time;durP1;ratioP1;P1;durP2;ratioP2;P2;SDS_P1;SDS_P2;PMS_P1;PMS_P2;Temp;Humidity;BMP_temperature;BMP_pressure;BME280_temperature;BME280_humidity;BME280_pressure;Samples;Min_cycle;Max_cycle;Signal;HPM_P1;HPM_P2
2021/03/29 00:01:27;;;;;;;13.98;3.30;;;10.40;99.90;;;;;;12357068;28;20132;-42
2021/03/29 00:07:29;;;;;;;9.07;3.10;;;10.30;99.90;;;;;;12373804;28;20081;-42
2021/03/29 00:13:31;;;;;;;13.68;3.50;;;10.30;99.90;;;;;;12371768;28;20418;-43
2021/03/29 00:19:34;;;;;;;12.15;3.35;;;10.30;99.90;;;;;;12367150;28;20059;-43
2021/03/29 00:25:37;;;;;;;11.98;3.70;;;10.20;99.90;;;;;;12366993;28;20728;-42
2021/03/29 00:31:39;;;;;;;12.00;3.90;;;10.20;99.90;;;;;;12371929;28;20076;-42
2021/03/29 00:37:42;;;;;;;13.57;3.50;;;10.20;99.90;;;;;;12365707;28;20052;-43
2021/03/29 00:43:46;;;;;;;11.40;3.53;;;10.20;99.90;;;;;;12365072;28;20487;-41
2021/03/29 00:49:48;;;;;;;12.75;3.97;;;10.00;99.90;;;;;;12368358;28;20741;-43
2021/03/29 00:55:51;;;;;;;17.83;4.47;;;9.90;99.90;;;;;;12368680;28;20069;-41
2021/03/29 01:01:54;;;;;;;;;;;9.80;99.90;;;;;;12365827;28;20501;-42
2021/03/29 01:07:56;;;;;;;16.77;5.22;;;9.90;99.90;;;;;;12357900;28;20015;-41
2021/03/29 01:14:04;;;;;;;13.70;3.83;;;9.80;99.90;;;;;;12373212;28;20474;-42
2021/03/29 01:20:24;;;;;;;15.85;4.18;;;9.80;99.90;;;;;;12367331;28;20058;-42
2021/03/29 01:26:36;;;;;;;13.50;4.22;;;9.90;99.90;;;;;;12362706;28;20133;-42
2021/03/29 01:32:41;;;;;;;18.05;4.43;;;9.90;99.90;;;;;;12365973;28;20190;-43
2021/03/29 01:38:45;;;;;;;13.60;4.20;;;9.90;99.90;;;;;;12366094;28;20086;-43
2021/03/29 01:44:48;;;;;;;10.00;4.00;;;9.80;99.90;;;;;;12367903;28;20058;-42
2021/03/29 01:50:53;;;;;;;13.45;3.95;;;9.70;99.90;;;;;;12361936;28;20042;-42
2021/03/29 01:56:55;;;;;;;14.35;3.83;;;9.60;99.90;;;;;;12360521;28;20065;-41
2021/03/29 02:02:58;;;;;;;11.25;4.28;;;9.60;99.90;;;;;;12362814;28;20174;-43
2021/03/29 02:09:01;;;;;;;19.37;4.70;;;9.60;99.90;;;;;;12372268;28;20701;-42
2021/03/29 02:15:04;;;;;;;13.77;4.40;;;9.50;99.90;;;;;;12367660;28;20096;-42
2021/03/29 02:21:10;;;;;;;13.75;3.90;;;9.60;99.90;;;;;;12365862;28;20447;-42
2021/03/29 02:27:12;;;;;;;11.50;4.10;;;9.60;99.90;;;;;;12372091;28;20053;-42
2021/03/29 02:33:16;;;;;;;12.20;3.55;;;9.60;99.90;;;;;;12367291;28;20053;-42
2021/03/29 02:39:19;;;;;;;12.27;4.07;;;9.50;99.90;;;;;;12378084;28;20414;-42
2021/03/29 02:45:23;;;;;;;10.07;3.35;;;9.50;99.90;;;;;;12373388;28;20054;-42
2021/03/29 02:51:25;;;;;;;9.85;3.80;;;9.60;99.90;;;;;;12378520;28;20148;-43
2021/03/29 02:57:27;;;;;;;14.77;3.97;;;9.40;99.90;;;;;;12380117;28;20046;-43
2021/03/29 03:03:29;;;;;;;12.32;3.58;;;9.40;99.90;;;;;;12367581;28;20050;-42
2021/03/29 03:09:31;;;;;;;12.23;3.83;;;9.50;99.90;;;;;;12370141;28;20104;-42
2021/03/29 03:15:34;;;;;;;14.95;4.20;;;9.50;99.90;;;;;;12367368;28;20152;-42
2021/03/29 03:21:36;;;;;;;13.93;3.70;;;9.50;99.90;;;;;;12379161;28;20549;-42
2021/03/29 03:27:38;;;;;;;10.57;3.58;;;9.50;99.90;;;;;;12376000;28;20085;-42
2021/03/29 03:33:40;;;;;;;12.05;3.63;;;9.60;99.90;;;;;;12368174;28;20104;-44
2021/03/29 03:39:44;;;;;;;11.90;3.15;;;9.50;99.90;;;;;;12381584;28;20062;-42
2021/03/29 03:45:51;;;;;;;12.43;3.35;;;9.40;99.90;;;;;;12370503;28;20049;-42
2021/03/29 03:51:54;;;;;;;12.70;3.47;;;9.40;99.90;;;;;;12378428;28;20446;-42
2021/03/29 03:57:56;;;;;;;19.75;4.03;;;9.40;99.90;;;;;;12366400;28;20050;-42
2021/03/29 04:03:57;;;;;;;11.70;3.47;;;9.30;99.90;;;;;;12370562;28;20054;-43
2021/03/29 04:10:06;;;;;;;13.27;3.60;;;9.30;99.90;;;;;;12375266;28;20063;-43
2021/03/29 04:16:09;;;;;;;14.80;3.58;;;9.30;99.90;;;;;;12372429;28;20089;-42
2021/03/29 04:22:10;;;;;;;9.55;3.60;;;9.30;99.90;;;;;;12377455;28;20058;-42
2021/03/29 04:28:11;;;;;;;11.90;3.80;;;9.30;99.90;;;;;;12371161;28;20104;-42
2021/03/29 04:34:13;;;;;;;11.40;3.47;;;9.30;99.90;;;;;;12368984;28;20062;-42
2021/03/29 04:40:15;;;;;;;10.75;2.78;;;9.40;99.90;;;;;;12369295;28;20132;-42
2021/03/29 04:46:16;;;;;;;10.35;3.40;;;9.40;99.90;;;;;;12365289;28;20054;-42
2021/03/29 04:52:18;;;;;;;11.35;3.55;;;9.50;99.90;;;;;;12364183;28;20094;-42
2021/03/29 04:58:19;;;;;;;10.88;3.42;;;9.50;99.90;;;;;;12354151;28;20057;-42
2021/03/29 05:04:20;;;;;;;15.40;3.78;;;9.60;99.90;;;;;;12362643;28;20116;-42
2021/03/29 05:10:22;;;;;;;13.23;3.15;;;9.50;99.90;;;;;;12365786;28;20145;-42
2021/03/29 05:16:28;;;;;;;11.18;3.15;;;9.60;99.90;;;;;;12372757;28;20046;-43
2021/03/29 05:22:29;;;;;;;14.50;3.50;;;9.60;99.90;;;;;;12374523;28;20096;-42
2021/03/29 05:28:30;;;;;;;14.32;4.40;;;9.60;99.90;;;;;;12366926;28;20479;-42
2021/03/29 05:34:32;;;;;;;12.07;3.30;;;9.50;99.90;;;;;;12360147;28;20058;-42
2021/03/29 05:40:33;;;;;;;14.15;3.80;;;9.60;99.90;;;;;;12371159;28;20050;-41
2021/03/29 05:46:38;;;;;;;10.23;3.60;;;9.60;99.90;;;;;;12361278;28;20060;-42
2021/03/29 05:52:40;;;;;;;10.38;3.08;;;9.70;99.90;;;;;;12362653;28;20526;-42
2021/03/29 05:58:55;;;;;;;10.55;3.17;;;9.80;99.90;;;;;;12362608;28;20053;-42
2021/03/29 06:04:57;;;;;;;13.70;3.60;;;9.90;99.90;;;;;;12373514;28;20050;-41
2021/03/29 06:11:00;;;;;;;10.27;3.05;;;10.00;99.90;;;;;;12379403;28;20141;-42
2021/03/29 06:17:07;;;;;;;10.85;3.33;;;10.10;99.90;;;;;;12376386;28;20162;-42
2021/03/29 06:23:11;;;;;;;17.50;3.72;;;10.10;99.90;;;;;;12375169;28;20050;-43
2021/03/29 06:29:19;;;;;;;10.55;2.80;;;10.20;99.90;;;;;;12372584;28;20623;-42
2021/03/29 06:35:22;;;;;;;9.13;2.85;;;10.40;99.90;;;;;;12375373;28;20246;-42
2021/03/29 06:41:26;;;;;;;9.35;2.90;;;10.40;99.90;;;;;;12379748;28;20825;-42
2021/03/29 06:47:33;;;;;;;11.00;3.67;;;10.50;99.90;;;;;;12369840;28;20096;-42
2021/03/29 06:53:36;;;;;;;15.02;3.03;;;10.50;99.90;;;;;;12333447;28;20595;-43
2021/03/29 06:59:38;;;;;;;12.00;3.38;;;10.50;99.90;;;;;;12325366;28;20050;-42
2021/03/29 07:05:39;;;;;;;13.40;3.72;;;10.50;99.90;;;;;;12331530;28;20434;-42
2021/03/29 07:11:43;;;;;;;14.98;2.88;;;10.50;99.90;;;;;;12322208;28;20046;-44
2021/03/29 07:17:45;;;;;;;10.60;3.13;;;10.90;99.90;;;;;;12323852;28;20161;-42
2021/03/29 07:23:46;;;;;;;9.10;3.28;;;11.20;99.90;;;;;;12330785;28;20050;-42
2021/03/29 07:29:49;;;;;;;9.60;3.05;;;11.40;99.90;;;;;;12323102;28;20046;-43
2021/03/29 07:35:56;;;;;;;11.95;2.90;;;11.60;99.90;;;;;;12320136;28;20150;-42
2021/03/29 07:42:25;;;;;;;15.18;3.20;;;11.70;99.90;;;;;;12324013;28;20054;-42
2021/03/29 07:48:39;;;;;;;11.35;2.85;;;12.00;99.90;;;;;;12324462;28;20145;-43
2021/03/29 07:54:50;;;;;;;12.02;2.65;;;12.00;99.90;;;;;;12373766;28;20050;-42
2021/03/29 08:01:00;;;;;;;11.20;2.92;;;12.40;99.90;;;;;;12371276;28;20049;-43
2021/03/29 08:07:02;;;;;;;9.90;2.50;;;12.50;99.90;;;;;;12367310;28;20109;-42
2021/03/29 08:13:05;;;;;;;11.25;2.75;;;12.70;99.90;;;;;;12374724;28;20944;-42
2021/03/29 08:19:10;;;;;;;11.70;2.73;;;12.90;99.90;;;;;;12359857;28;20058;-42
2021/03/29 08:25:29;;;;;;;6.80;2.58;;;13.00;99.90;;;;;;12373590;28;20088;-42
2021/03/29 08:32:01;;;;;;;11.82;2.92;;;12.90;99.90;;;;;;12367417;28;20042;-42
2021/03/29 08:38:08;;;;;;;6.53;2.38;;;12.90;99.90;;;;;;12372869;28;20460;-43
2021/03/29 08:44:13;;;;;;;8.63;3.00;;;13.10;99.90;;;;;;12369510;28;20508;-42
2021/03/29 08:50:23;;;;;;;10.30;2.33;;;13.20;99.90;;;;;;12375712;28;20092;-43
2021/03/29 08:56:37;;;;;;;10.30;2.65;;;13.50;99.90;;;;;;12363845;28;20054;-44
2021/03/29 09:02:39;;;;;;;12.13;2.92;;;13.70;99.90;;;;;;12370766;28;20129;-44
2021/03/29 09:08:40;;;;;;;11.38;2.75;;;13.90;99.90;;;;;;12373045;28;20447;-42
2021/03/29 09:14:42;;;;;;;11.43;2.60;;;14.00;99.90;;;;;;12365131;28;20542;-42
2021/03/29 09:20:47;;;;;;;6.55;2.58;;;14.00;99.90;;;;;;12365497;28;20486;-42
2021/03/29 09:27:12;;;;;;;8.20;2.33;;;14.20;99.90;;;;;;12364588;28;20137;-44
2021/03/29 09:33:14;;;;;;;8.10;2.90;;;14.40;99.90;;;;;;12369659;28;20042;-42
2021/03/29 09:39:16;;;;;;;7.57;2.53;;;14.60;99.90;;;;;;12375442;28;20088;-44
2021/03/29 09:45:24;;;;;;;8.98;2.83;;;14.60;99.90;;;;;;12371124;28;20042;-43
2021/03/29 09:51:27;;;;;;;8.60;2.67;;;15.00;99.90;;;;;;12366757;28;20051;-43
2021/03/29 09:57:36;;;;;;;9.57;2.50;;;15.00;99.90;;;;;;12358721;28;20702;-42
2021/03/29 10:03:37;;;;;;;12.27;3.08;;;15.40;99.90;;;;;;12371377;28;20072;-43
2021/03/29 10:09:39;;;;;;;11.13;2.60;;;15.30;99.90;;;;;;12372355;28;20049;-43
2021/03/29 10:15:42;;;;;;;9.38;2.90;;;15.20;99.90;;;;;;12365867;28;20038;-43
2021/03/29 10:22:02;;;;;;;7.40;2.08;;;15.60;99.90;;;;;;12369630;28;20092;-44
2021/03/29 10:28:04;;;;;;;6.60;2.40;;;16.00;99.90;;;;;;12362331;28;20228;-43
2021/03/29 10:34:05;;;;;;;8.15;2.40;;;16.10;99.90;;;;;;12369764;28;20089;-42
2021/03/29 10:40:07;;;;;;;8.65;2.42;;;16.30;99.90;;;;;;12373491;28;20123;-43
2021/03/29 10:46:09;;;;;;;8.20;2.20;;;16.40;99.90;;;;;;12368201;28;20133;-43
2021/03/29 10:52:11;;;;;;;6.70;2.28;;;16.60;99.90;;;;;;12383143;28;20078;-44
2021/03/29 10:58:12;;;;;;;6.05;2.08;;;16.60;99.90;;;;;;12374620;28;20475;-43
2021/03/29 11:04:14;;;;;;;4.75;2.00;;;16.90;99.90;;;;;;12374624;28;20049;-44
2021/03/29 11:10:15;;;;;;;7.72;2.05;;;17.10;99.90;;;;;;12376488;28;20514;-43
2021/03/29 11:16:17;;;;;;;7.63;2.25;;;17.10;99.90;;;;;;12375906;28;20057;-43
2021/03/29 11:22:22;;;;;;;8.13;2.25;;;17.10;99.90;;;;;;12376478;28;20151;-46
2021/03/29 11:28:23;;;;;;;6.28;1.98;;;17.20;99.90;;;;;;12383467;28;20673;-43
2021/03/29 11:34:25;;;;;;;9.80;2.20;;;17.50;99.90;;;;;;12382243;28;20051;-44
2021/03/29 11:40:27;;;;;;;6.30;1.67;;;17.90;99.90;;;;;;12373516;28;20049;-43
2021/03/29 11:46:28;;;;;;;7.95;2.67;;;17.80;99.90;;;;;;12370378;28;20141;-44
2021/03/29 11:52:29;;;;;;;10.25;2.45;;;18.00;99.90;;;;;;12377362;28;20545;-43
2021/03/29 11:58:31;;;;;;;7.53;1.90;;;17.90;99.90;;;;;;12373736;28;20414;-42
2021/03/29 12:04:42;;;;;;;7.32;2.15;;;18.10;99.90;;;;;;12379312;28;20090;-43
2021/03/29 12:17:09;;;;;;;7.97;2.33;;;18.10;99.90;;;;;;12372067;28;20057;-44
2021/03/29 12:23:11;;;;;;;7.18;2.00;;;18.40;99.90;;;;;;12359073;28;20050;-43
2021/03/29 12:29:16;;;;;;;10.43;1.90;;;18.60;99.90;;;;;;12369268;28;20528;-43
2021/03/29 12:35:22;;;;;;;8.00;2.20;;;18.80;99.90;;;;;;12374980;28;20060;-45
2021/03/29 12:41:25;;;;;;;9.82;2.45;;;18.70;99.90;;;;;;12372015;28;20133;-43
2021/03/29 12:47:28;;;;;;;6.73;2.67;;;18.80;99.90;;;;;;12366390;28;20050;-43
2021/03/29 12:53:30;;;;;;;10.10;2.17;;;18.80;99.90;;;;;;12373056;28;20046;-44
2021/03/29 12:59:32;;;;;;;8.93;2.65;;;18.90;99.90;;;;;;12373968;28;20088;-43
2021/03/29 13:05:39;;;;;;;8.90;2.67;;;19.20;99.90;;;;;;12365351;28;20050;-43
2021/03/29 13:11:41;;;;;;;12.65;2.70;;;18.90;99.90;;;;;;12370909;28;20050;-42
2021/03/29 13:17:43;;;;;;;10.50;3.13;;;19.00;99.90;;;;;;12374353;28;20186;-42
2021/03/29 13:23:45;;;;;;;8.10;2.35;;;19.00;99.90;;;;;;12361932;28;20061;-44
2021/03/29 13:29:47;;;;;;;6.30;2.15;;;19.10;99.90;;;;;;12363595;28;20042;-43
2021/03/29 13:35:49;;;;;;;10.88;3.03;;;19.20;99.90;;;;;;12361708;28;20042;-43
2021/03/29 13:41:53;;;;;;;6.25;2.70;;;19.00;99.90;;;;;;12362914;28;20158;-44
2021/03/29 13:47:54;;;;;;;8.45;2.55;;;19.10;99.90;;;;;;12363031;28;20771;-43
2021/03/29 13:53:59;;;;;;;7.68;2.28;;;19.40;99.90;;;;;;12358398;28;20052;-42
2021/03/29 14:00:01;;;;;;;4.75;2.25;;;19.20;99.90;;;;;;12369805;28;20062;-42
2021/03/29 14:06:02;;;;;;;7.85;2.60;;;19.20;98.50;;;;;;12357521;28;20104;-44
2021/03/29 14:12:06;;;;;;;7.78;2.45;;;18.90;97.90;;;;;;12372102;28;20042;-43
2021/03/29 14:18:08;;;;;;;8.07;2.50;;;19.10;97.00;;;;;;12365744;28;20128;-44
2021/03/29 14:24:11;;;;;;;5.63;2.10;;;19.20;99.90;;;;;;12375765;28;20455;-43
2021/03/29 14:30:14;;;;;;;7.60;2.72;;;19.40;97.50;;;;;;12378372;28;20616;-43
2021/03/29 14:42:21;;;;;;;6.28;2.28;;;19.40;96.40;;;;;;12376646;28;20144;-42
2021/03/29 14:48:22;;;;;;;9.63;2.42;;;19.50;98.10;;;;;;12376204;28;20050;-43
2021/03/29 14:54:25;;;;;;;7.13;2.22;;;19.70;95.60;;;;;;12375764;28;20058;-43
2021/03/29 15:00:27;;;;;;;9.48;2.50;;;19.70;93.50;;;;;;12367309;28;20050;-42
2021/03/29 15:06:46;;;;;;;10.15;2.65;;;19.70;94.40;;;;;;12377344;28;20395;-42
2021/03/29 15:12:47;;;;;;;7.75;2.40;;;19.80;93.60;;;;;;12374836;28;20121;-43
2021/03/29 15:18:49;;;;;;;8.27;2.40;;;20.00;93.30;;;;;;12376633;28;20133;-42
2021/03/29 15:24:51;;;;;;;7.68;3.13;;;19.80;91.90;;;;;;12369919;28;20792;-42
2021/03/29 15:30:55;;;;;;;8.68;2.65;;;19.70;91.60;;;;;;12373556;28;20092;-43
2021/03/29 15:36:58;;;;;;;12.80;3.17;;;20.10;92.10;;;;;;12371570;28;20054;-43
2021/03/29 15:42:59;;;;;;;4.18;2.00;;;20.10;91.70;;;;;;12363962;28;20050;-43
2021/03/29 15:49:01;;;;;;;6.93;2.70;;;19.60;91.10;;;;;;12370704;28;20054;-43
2021/03/29 15:55:02;;;;;;;8.63;2.30;;;19.70;91.50;;;;;;12372721;28;20062;-43
2021/03/29 16:01:05;;;;;;;11.60;3.20;;;19.40;91.80;;;;;;12361148;28;20046;-43
2021/03/29 16:07:07;;;;;;;10.60;2.90;;;19.50;91.10;;;;;;12368186;28;20049;-43
2021/03/29 16:13:09;;;;;;;8.85;2.30;;;19.30;91.10;;;;;;12376632;28;20054;-43
2021/03/29 16:19:13;;;;;;;7.18;2.50;;;19.30;91.20;;;;;;12371225;28;20057;-43
2021/03/29 16:25:19;;;;;;;8.33;2.43;;;19.10;92.00;;;;;;12367373;28;20042;-42
2021/03/29 16:31:21;;;;;;;5.70;2.25;;;19.10;89.60;;;;;;12374453;28;20132;-43
2021/03/29 16:37:23;;;;;;;10.18;2.30;;;19.20;91.40;;;;;;12373408;28;20050;-44
2021/03/29 16:43:24;;;;;;;6.13;2.50;;;19.00;90.90;;;;;;12370321;28;20045;-43
2021/03/29 16:49:26;;;;;;;7.55;2.70;;;19.20;92.40;;;;;;12364989;28;20059;-43
2021/03/29 16:55:27;;;;;;;6.55;2.15;;;19.50;92.10;;;;;;12367998;28;20046;-45
2021/03/29 17:01:29;;;;;;;9.90;2.40;;;19.50;93.40;;;;;;12371682;28;20057;-44
2021/03/29 17:07:30;;;;;;;5.80;2.20;;;19.70;91.80;;;;;;12371958;28;20581;-45
2021/03/29 17:13:32;;;;;;;9.65;2.20;;;19.20;91.10;;;;;;12366591;28;20478;-43
2021/03/29 17:19:34;;;;;;;7.07;2.15;;;19.00;94.10;;;;;;12368795;28;20479;-43
2021/03/29 17:25:36;;;;;;;7.68;2.50;;;18.80;91.80;;;;;;12371117;28;20052;-43
2021/03/29 17:31:37;;;;;;;7.78;2.33;;;17.90;95.70;;;;;;12361692;28;20121;-43
2021/03/29 17:37:39;;;;;;;9.18;3.00;;;17.50;94.20;;;;;;12360924;28;20050;-43
2021/03/29 17:43:42;;;;;;;9.35;2.55;;;16.70;96.40;;;;;;12362076;28;20085;-42
2021/03/29 17:49:43;;;;;;;11.95;3.00;;;16.40;98.90;;;;;;12365137;28;20054;-42
2021/03/29 17:55:45;;;;;;;7.93;3.10;;;16.00;99.90;;;;;;12370020;28;20133;-42
2021/03/29 18:01:46;;;;;;;19.67;3.40;;;15.70;99.90;;;;;;12372475;28;20042;-43
2021/03/29 18:07:48;;;;;;;7.28;3.30;;;15.40;99.90;;;;;;12374072;28;20581;-43
2021/03/29 18:13:49;;;;;;;8.75;3.38;;;15.00;99.90;;;;;;12367120;28;20544;-43
2021/03/29 18:19:51;;;;;;;5.97;2.90;;;14.60;99.90;;;;;;12367282;28;20058;-42
2021/03/29 18:25:52;;;;;;;6.80;2.80;;;14.30;99.90;;;;;;12364957;28;20514;-42
2021/03/29 18:31:54;;;;;;;6.32;2.38;;;14.10;99.90;;;;;;12373765;28;20050;-45
2021/03/29 18:38:15;;;;;;;9.18;2.80;;;14.20;99.90;;;;;;12370609;28;20062;-42
2021/03/29 18:44:16;;;;;;;10.32;3.10;;;14.00;99.90;;;;;;12375527;28;20042;-42
2021/03/29 18:50:18;;;;;;;6.70;3.00;;;14.00;99.90;;;;;;12373585;28;20082;-42
2021/03/29 19:02:21;;;;;;;7.13;2.90;;;14.00;99.90;;;;;;12368833;28;20158;-44
2021/03/29 19:08:29;;;;;;;6.70;2.80;;;14.10;99.90;;;;;;12358583;28;20629;-43
2021/03/29 19:14:31;;;;;;;9.43;3.10;;;14.10;99.90;;;;;;12370888;28;20069;-44
2021/03/29 19:20:32;;;;;;;5.90;2.88;;;14.20;99.90;;;;;;12371710;28;20490;-43
2021/03/29 19:26:38;;;;;;;6.88;2.80;;;14.00;99.90;;;;;;12377570;28;20397;-42
2021/03/29 19:32:39;;;;;;;7.03;2.58;;;14.10;99.90;;;;;;12377061;28;20054;-43
2021/03/29 19:38:44;;;;;;;8.20;2.90;;;14.10;99.90;;;;;;12373509;28;20050;-42
2021/03/29 19:44:46;;;;;;;10.70;3.45;;;14.10;99.90;;;;;;12371788;28;20057;-42
2021/03/29 19:50:47;;;;;;;8.90;2.72;;;14.10;99.90;;;;;;12371605;28;20149;-43
2021/03/29 19:56:48;;;;;;;10.38;3.20;;;13.90;99.90;;;;;;12374338;28;20465;-44
2021/03/29 20:03:00;;;;;;;12.07;3.08;;;13.90;99.90;;;;;;12376503;28;20125;-44
2021/03/29 20:09:37;;;;;;;9.77;2.97;;;13.70;99.90;;;;;;12368668;28;20100;-43
2021/03/29 20:15:33;;;;;;;6.97;2.83;;;13.60;99.90;;;;;;12361650;28;20049;-42
2021/03/29 20:21:35;;;;;;;8.80;3.00;;;13.60;99.90;;;;;;12375650;28;20532;-42
2021/03/29 20:27:37;;;;;;;8.48;2.97;;;13.60;99.90;;;;;;12368994;28;20038;-43
2021/03/29 20:33:42;;;;;;;5.75;2.95;;;13.60;99.90;;;;;;12382439;28;20594;-42
2021/03/29 20:39:44;;;;;;;6.00;3.20;;;13.60;99.90;;;;;;12372718;28;20064;-42
2021/03/29 20:45:45;;;;;;;8.45;3.55;;;13.60;99.90;;;;;;12366867;28;20111;-42
2021/03/29 20:51:47;;;;;;;11.02;3.45;;;13.60;99.90;;;;;;12370192;28;20472;-42
2021/03/29 20:57:48;;;;;;;8.13;3.03;;;13.60;99.90;;;;;;12361914;28;20644;-42
2021/03/29 21:03:50;;;;;;;8.25;3.25;;;13.30;99.90;;;;;;12361767;28;20052;-43
2021/03/29 21:09:51;;;;;;;9.50;3.53;;;13.40;99.90;;;;;;12375352;28;20141;-42
2021/03/29 21:15:53;;;;;;;5.85;3.20;;;13.50;99.90;;;;;;12369032;28;20304;-42
2021/03/29 21:21:54;;;;;;;6.38;3.08;;;13.50;99.90;;;;;;12372901;28;20053;-45
2021/03/29 21:27:56;;;;;;;9.23;3.78;;;13.60;99.70;;;;;;12379869;28;20830;-42
2021/03/29 21:33:57;;;;;;;6.03;3.00;;;13.50;99.90;;;;;;12369375;28;20097;-42
2021/03/29 21:39:59;;;;;;;9.48;3.10;;;13.40;99.40;;;;;;12364484;28;20051;-42
2021/03/29 21:46:00;;;;;;;7.97;3.40;;;13.40;98.50;;;;;;12369061;28;20057;-42
2021/03/29 21:52:02;;;;;;;11.93;4.10;;;13.30;99.90;;;;;;12369249;28;20145;-43
2021/03/29 21:58:03;;;;;;;6.20;3.25;;;13.10;99.90;;;;;;12364002;28;20054;-44
2021/03/29 22:04:05;;;;;;;10.50;4.25;;;13.00;99.90;;;;;;12360753;28;20101;-42
2021/03/29 22:10:09;;;;;;;10.73;3.72;;;12.90;99.90;;;;;;12366189;28;20054;-43
2021/03/29 22:16:10;;;;;;;9.13;3.90;;;12.90;99.90;;;;;;12367087;28;20046;-42
2021/03/29 22:22:12;;;;;;;9.90;4.35;;;12.70;99.90;;;;;;12376781;28;20054;-42
2021/03/29 22:40:34;;;;;;;11.45;4.63;;;12.80;99.90;;;;;;12374792;28;20042;-42
2021/03/29 22:46:36;;;;;;;11.65;4.30;;;12.70;99.90;;;;;;12377052;28;20199;-42
2021/03/29 22:52:38;;;;;;;8.60;4.30;;;12.50;99.90;;;;;;12373918;28;20562;-42
2021/03/29 22:58:40;;;;;;;12.30;4.57;;;12.50;99.90;;;;;;12384259;28;20112;-41
2021/03/29 23:04:41;;;;;;;9.73;4.68;;;12.40;99.90;;;;;;12378724;28;20076;-42
2021/03/29 23:10:43;;;;;;;10.35;4.82;;;12.40;99.90;;;;;;12384571;28;20046;-42
2021/03/29 23:16:45;;;;;;;8.65;4.97;;;12.40;99.90;;;;;;12379539;28;20073;-42
2021/03/29 23:22:47;;;;;;;11.52;4.80;;;12.40;99.90;;;;;;12381777;28;20133;-42
2021/03/29 23:28:48;;;;;;;11.98;4.35;;;12.40;99.90;;;;;;12377084;28;20050;-42
2021/03/29 23:34:49;;;;;;;9.48;4.57;;;12.30;99.90;;;;;;12375104;28;20060;-42
2021/03/29 23:40:51;;;;;;;10.98;4.78;;;12.20;99.90;;;;;;12366069;28;20046;-41
2021/03/29 23:47:03;;;;;;;8.05;4.68;;;12.10;99.90;;;;;;12372346;28;20054;-42
2021/03/29 23:53:04;;;;;;;8.77;4.75;;;12.00;99.90;;;;;;12376338;28;20048;-42
2021/03/29 23:59:06;;;;;;;8.70;4.60;;;11.80;99.90;;;;;;12381841;28;20062;-42
